sensor_id;sensor_type;location;lat;lon;timestamp;P1;durP1;ratioP1;P2;durP2;ratioP2
70008;SDS011;59542;37.950;-122.338;2023-09-18T00:00:54;6.18;;;3.55;;
70008;SDS011;59542;37.950;-122.338;2023-09-18T00:03:22;4.97;;;3.40;;
70008;SDS011;59542;37.950;-122.338;2023-09-18T00:05:50;4.75;;;3.65;;
70008;SDS011;59542;37.950;-122.338;2023-09-18T00:08:17;5.50;;;3.67;;
70008;SDS011;59542;37.950;-122.338;2023-09-18T00:10:48;5.30;;;4.10;;
70008;SDS011;59542;37.950;-122.338;2023-09-18T00:13:18;4.75;;;3.60;;
70008;SDS011;59542;37.950;-122.338;2023-09-18T00:15:44;6.38;;;4.10;;
70008;SDS011;59542;37.950;-122.338;2023-09-18T00:18:13;6.07;;;4.10;;
70008;SDS011;59542;37.950;-122.338;2023-09-18T00:20:42;6.93;;;3.72;;
70008;SDS011;59542;37.950;-122.338;2023-09-18T00:23:10;5.22;;;3.90;;
70008;SDS011;59542;37.950;-122.338;2023-09-18T00:25:37;4.32;;;3.92;;
70008;SDS011;59542;37.950;-122.338;2023-09-18T00:28:06;4.68;;;3.70;;
70008;SDS011;59542;37.950;-122.338;2023-09-18T00:30:32;6.35;;;3.50;;
70008;SDS011;59542;37.950;-122.338;2023-09-18T00:32:59;6.07;;;4.50;;
70008;SDS011;59542;37.950;-122.338;2023-09-18T00:35:25;4.85;;;3.83;;
70008;SDS011;59542;37.950;-122.338;2023-09-18T00:37:51;4.40;;;3.47;;
70008;SDS011;59542;37.950;-122.338;2023-09-18T00:40:18;5.43;;;4.25;;
70008;SDS011;59542;37.950;-122.338;2023-09-18T00:42:45;7.45;;;3.85;;
70008;SDS011;59542;37.950;-122.338;2023-09-18T00:45:11;4.85;;;3.90;;
70008;SDS011;59542;37.950;-122.338;2023-09-18T00:47:37;5.80;;;3.95;;
70008;SDS011;59542;37.950;-122.338;2023-09-18T00:50:04;5.85;;;3.90;;
70008;SDS011;59542;37.950;-122.338;2023-09-18T00:52:33;4.53;;;3.63;;
70008;SDS011;59542;37.950;-122.338;2023-09-18T00:55:00;5.80;;;4.10;;
70008;SDS011;59542;37.950;-122.338;2023-09-18T00:57:28;5.85;;;4.32;;
70008;SDS011;59542;37.950;-122.338;2023-09-18T00:59:54;4.85;;;4.10;;
70008;SDS011;59542;37.950;-122.338;2023-09-18T01:02:20;4.55;;;4.15;;
70008;SDS011;59542;37.950;-122.338;2023-09-18T01:04:47;4.50;;;3.80;;
70008;SDS011;59542;37.950;-122.338;2023-09-18T01:07:15;4.38;;;3.80;;
70008;SDS011;59542;37.950;-122.338;2023-09-18T01:09:41;4.38;;;3.90;;
70008;SDS011;59542;37.950;-122.338;2023-09-18T01:17:34;6.72;;;5.00;;
70008;SDS011;59542;37.950;-122.338;2023-09-18T01:20:08;7.05;;;4.97;;
70008;SDS011;59542;37.950;-122.338;2023-09-18T01:22:35;5.32;;;4.40;;
70008;SDS011;59542;37.950;-122.338;2023-09-18T01:25:01;6.97;;;5.50;;
70008;SDS011;59542;37.950;-122.338;2023-09-18T01:27:28;8.13;;;5.47;;
70008;SDS011;59542;37.950;-122.338;2023-09-18T01:29:55;7.05;;;4.82;;
70008;SDS011;59542;37.950;-122.338;2023-09-18T01:32:23;7.95;;;5.13;;
70008;SDS011;59542;37.950;-122.338;2023-09-18T01:34:52;6.43;;;5.45;;
70008;SDS011;59542;37.950;-122.338;2023-09-18T01:37:24;5.40;;;4.43;;
70008;SDS011;59542;37.950;-122.338;2023-09-18T01:39:53;5.72;;;4.60;;
70008;SDS011;59542;37.950;-122.338;2023-09-18T01:42:23;6.32;;;5.13;;
70008;SDS011;59542;37.950;-122.338;2023-09-18T01:44:50;6.13;;;5.53;;
70008;SDS011;59542;37.950;-122.338;2023-09-18T01:47:17;6.00;;;5.40;;
70008;SDS011;59542;37.950;-122.338;2023-09-18T01:49:46;7.28;;;6.00;;
70008;SDS011;59542;37.950;-122.338;2023-09-18T01:52:12;8.23;;;5.72;;
70008;SDS011;59542;37.950;-122.338;2023-09-18T01:54:38;8.18;;;5.82;;
70008;SDS011;59542;37.950;-122.338;2023-09-18T01:57:05;6.93;;;5.40;;
70008;SDS011;59542;37.950;-122.338;2023-09-18T01:59:32;6.75;;;5.22;;
70008;SDS011;59542;37.950;-122.338;2023-09-18T02:01:59;5.82;;;5.22;;
70008;SDS011;59542;37.950;-122.338;2023-09-18T02:04:28;11.20;;;5.43;;
70008;SDS011;59542;37.950;-122.338;2023-09-18T02:06:55;6.05;;;5.45;;
70008;SDS011;59542;37.950;-122.338;2023-09-18T02:09:22;7.82;;;6.07;;
70008;SDS011;59542;37.950;-122.338;2023-09-18T02:11:48;7.97;;;5.40;;
70008;SDS011;59542;37.950;-122.338;2023-09-18T02:14:15;7.25;;;5.60;;
70008;SDS011;59542;37.950;-122.338;2023-09-18T02:16:42;6.47;;;5.75;;
70008;SDS011;59542;37.950;-122.338;2023-09-18T02:19:09;6.18;;;5.47;;
70008;SDS011;59542;37.950;-122.338;2023-09-18T02:21:36;7.15;;;5.82;;
70008;SDS011;59542;37.950;-122.338;2023-09-18T02:24:03;9.38;;;5.85;;
70008;SDS011;59542;37.950;-122.338;2023-09-18T02:26:29;7.18;;;5.50;;
70008;SDS011;59542;37.950;-122.338;2023-09-18T02:28:58;6.90;;;6.20;;
70008;SDS011;59542;37.950;-122.338;2023-09-18T02:31:25;7.18;;;6.03;;
70008;SDS011;59542;37.950;-122.338;2023-09-18T02:33:52;6.88;;;6.18;;
70008;SDS011;59542;37.950;-122.338;2023-09-18T02:36:18;6.28;;;5.45;;
70008;SDS011;59542;37.950;-122.338;2023-09-18T02:38:45;7.82;;;6.18;;
70008;SDS011;59542;37.950;-122.338;2023-09-18T02:41:11;10.10;;;6.85;;
70008;SDS011;59542;37.950;-122.338;2023-09-18T02:43:37;8.15;;;6.32;;
70008;SDS011;59542;37.950;-122.338;2023-09-18T02:46:04;9.55;;;6.18;;
70008;SDS011;59542;37.950;-122.338;2023-09-18T02:48:31;8.45;;;7.60;;
70008;SDS011;59542;37.950;-122.338;2023-09-18T02:51:01;8.60;;;6.88;;
70008;SDS011;59542;37.950;-122.338;2023-09-18T02:53:28;9.23;;;6.43;;
70008;SDS011;59542;37.950;-122.338;2023-09-18T02:55:58;9.32;;;6.53;;
70008;SDS011;59542;37.950;-122.338;2023-09-18T02:58:25;6.57;;;5.88;;
70008;SDS011;59542;37.950;-122.338;2023-09-18T03:00:54;6.97;;;5.18;;
70008;SDS011;59542;37.950;-122.338;2023-09-18T03:03:25;7.60;;;5.25;;
70008;SDS011;59542;37.950;-122.338;2023-09-18T03:05:52;6.10;;;5.38;;
70008;SDS011;59542;37.950;-122.338;2023-09-18T03:08:18;9.23;;;6.50;;
70008;SDS011;59542;37.950;-122.338;2023-09-18T03:10:44;7.28;;;6.22;;
70008;SDS011;59542;37.950;-122.338;2023-09-18T03:13:12;8.00;;;6.00;;
70008;SDS011;59542;37.950;-122.338;2023-09-18T03:15:41;7.18;;;5.22;;
70008;SDS011;59542;37.950;-122.338;2023-09-18T03:18:12;6.75;;;4.88;;
70008;SDS011;59542;37.950;-122.338;2023-09-18T03:20:38;7.53;;;5.65;;
70008;SDS011;59542;37.950;-122.338;2023-09-18T03:23:04;5.88;;;5.25;;
70008;SDS011;59542;37.950;-122.338;2023-09-18T03:25:31;7.85;;;5.65;;
70008;SDS011;59542;37.950;-122.338;2023-09-18T03:27:57;5.40;;;4.90;;
70008;SDS011;59542;37.950;-122.338;2023-09-18T03:30:24;6.32;;;5.72;;
70008;SDS011;59542;37.950;-122.338;2023-09-18T03:32:51;6.13;;;5.03;;
70008;SDS011;59542;37.950;-122.338;2023-09-18T03:35:18;6.55;;;5.50;;
70008;SDS011;59542;37.950;-122.338;2023-09-18T03:37:46;7.88;;;5.53;;
70008;SDS011;59542;37.950;-122.338;2023-09-18T03:40:17;7.25;;;5.57;;
70008;SDS011;59542;37.950;-122.338;2023-09-18T03:42:44;5.85;;;5.22;;
70008;SDS011;59542;37.950;-122.338;2023-09-18T03:45:11;8.73;;;6.05;;
70008;SDS011;59542;37.950;-122.338;2023-09-18T03:47:38;6.45;;;5.50;;
70008;SDS011;59542;37.950;-122.338;2023-09-18T03:50:06;6.30;;;5.40;;
70008;SDS011;59542;37.950;-122.338;2023-09-18T03:52:36;6.90;;;6.05;;
70008;SDS011;59542;37.950;-122.338;2023-09-18T03:55:04;6.75;;;5.53;;
70008;SDS011;59542;37.950;-122.338;2023-09-18T03:57:31;5.85;;;5.22;;
70008;SDS011;59542;37.950;-122.338;2023-09-18T03:59:57;7.50;;;6.22;;
70008;SDS011;59542;37.950;-122.338;2023-09-18T04:02:24;5.70;;;5.07;;
70008;SDS011;59542;37.950;-122.338;2023-09-18T04:04:51;5.95;;;5.20;;
70008;SDS011;59542;37.950;-122.338;2023-09-18T04:07:20;5.82;;;4.53;;
70008;SDS011;59542;37.950;-122.338;2023-09-18T04:09:46;6.38;;;4.75;;
70008;SDS011;59542;37.950;-122.338;2023-09-18T04:12:12;6.00;;;5.28;;
70008;SDS011;59542;37.950;-122.338;2023-09-18T04:14:39;8.18;;;5.20;;
70008;SDS011;59542;37.950;-122.338;2023-09-18T04:17:05;5.90;;;5.28;;
70008;SDS011;59542;37.950;-122.338;2023-09-18T04:19:32;5.85;;;4.97;;
70008;SDS011;59542;37.950;-122.338;2023-09-18T04:21:58;8.13;;;5.40;;
70008;SDS011;59542;37.950;-122.338;2023-09-18T04:24:25;7.80;;;5.32;;
70008;SDS011;59542;37.950;-122.338;2023-09-18T04:26:52;7.53;;;5.53;;
70008;SDS011;59542;37.950;-122.338;2023-09-18T04:29:18;7.85;;;5.78;;
70008;SDS011;59542;37.950;-122.338;2023-09-18T04:31:45;7.25;;;5.55;;
70008;SDS011;59542;37.950;-122.338;2023-09-18T04:34:12;7.15;;;5.45;;
70008;SDS011;59542;37.950;-122.338;2023-09-18T04:36:38;6.25;;;5.28;;
70008;SDS011;59542;37.950;-122.338;2023-09-18T04:39:05;8.27;;;6.03;;
70008;SDS011;59542;37.950;-122.338;2023-09-18T04:41:32;11.00;;;5.80;;
70008;SDS011;59542;37.950;-122.338;2023-09-18T04:43:59;8.40;;;6.07;;
70008;SDS011;59542;37.950;-122.338;2023-09-18T04:46:25;6.97;;;5.35;;
70008;SDS011;59542;37.950;-122.338;2023-09-18T04:48:51;6.75;;;6.05;;
70008;SDS011;59542;37.950;-122.338;2023-09-18T04:51:18;6.18;;;5.47;;
70008;SDS011;59542;37.950;-122.338;2023-09-18T04:53:44;6.43;;;5.75;;
70008;SDS011;59542;37.950;-122.338;2023-09-18T04:56:10;9.20;;;6.55;;
70008;SDS011;59542;37.950;-122.338;2023-09-18T04:58:37;8.60;;;6.32;;
70008;SDS011;59542;37.950;-122.338;2023-09-18T05:01:03;7.53;;;6.82;;
70008;SDS011;59542;37.950;-122.338;2023-09-18T05:03:32;7.63;;;6.38;;
70008;SDS011;59542;37.950;-122.338;2023-09-18T05:05:59;9.38;;;6.20;;
70008;SDS011;59542;37.950;-122.338;2023-09-18T05:08:26;7.43;;;6.38;;
70008;SDS011;59542;37.950;-122.338;2023-09-18T05:10:52;7.75;;;5.80;;
70008;SDS011;59542;37.950;-122.338;2023-09-18T05:13:18;8.38;;;6.00;;
70008;SDS011;59542;37.950;-122.338;2023-09-18T05:15:44;11.98;;;6.50;;
70008;SDS011;59542;37.950;-122.338;2023-09-18T05:18:11;7.13;;;5.82;;
70008;SDS011;59542;37.950;-122.338;2023-09-18T05:20:39;10.75;;;6.35;;
70008;SDS011;59542;37.950;-122.338;2023-09-18T05:23:06;6.90;;;6.00;;
70008;SDS011;59542;37.950;-122.338;2023-09-18T05:25:34;7.38;;;5.75;;
70008;SDS011;59542;37.950;-122.338;2023-09-18T05:28:03;9.05;;;6.45;;
70008;SDS011;59542;37.950;-122.338;2023-09-18T05:30:31;8.18;;;6.53;;
70008;SDS011;59542;37.950;-122.338;2023-09-18T05:33:01;6.85;;;6.10;;
70008;SDS011;59542;37.950;-122.338;2023-09-18T05:35:32;9.27;;;6.70;;
70008;SDS011;59542;37.950;-122.338;2023-09-18T05:38:03;6.28;;;5.53;;
70008;SDS011;59542;37.950;-122.338;2023-09-18T05:40:30;6.78;;;5.93;;
70008;SDS011;59542;37.950;-122.338;2023-09-18T05:42:57;7.85;;;6.25;;
70008;SDS011;59542;37.950;-122.338;2023-09-18T05:45:23;9.10;;;6.97;;
70008;SDS011;59542;37.950;-122.338;2023-09-18T05:47:52;10.48;;;6.65;;
70008;SDS011;59542;37.950;-122.338;2023-09-18T05:50:36;7.57;;;6.50;;
70008;SDS011;59542;37.950;-122.338;2023-09-18T05:53:02;7.15;;;5.80;;
70008;SDS011;59542;37.950;-122.338;2023-09-18T05:55:29;6.55;;;5.93;;
70008;SDS011;59542;37.950;-122.338;2023-09-18T05:57:57;7.80;;;5.90;;
70008;SDS011;59542;37.950;-122.338;2023-09-18T06:00:23;6.65;;;6.00;;
70008;SDS011;59542;37.950;-122.338;2023-09-18T06:02:50;11.93;;;6.28;;
70008;SDS011;59542;37.950;-122.338;2023-09-18T06:05:17;7.63;;;5.55;;
70008;SDS011;59542;37.950;-122.338;2023-09-18T06:07:47;8.95;;;6.82;;
70008;SDS011;59542;37.950;-122.338;2023-09-18T06:10:14;7.57;;;5.70;;
70008;SDS011;59542;37.950;-122.338;2023-09-18T06:12:40;10.32;;;6.90;;
70008;SDS011;59542;37.950;-122.338;2023-09-18T06:15:07;8.32;;;6.05;;
70008;SDS011;59542;37.950;-122.338;2023-09-18T06:17:38;13.13;;;6.93;;
70008;SDS011;59542;37.950;-122.338;2023-09-18T06:20:05;6.90;;;5.78;;
70008;SDS011;59542;37.950;-122.338;2023-09-18T06:22:37;8.30;;;5.90;;
70008;SDS011;59542;37.950;-122.338;2023-09-18T06:25:07;8.40;;;6.00;;
70008;SDS011;59542;37.950;-122.338;2023-09-18T06:27:38;11.60;;;7.15;;
70008;SDS011;59542;37.950;-122.338;2023-09-18T06:30:04;8.43;;;6.93;;
70008;SDS011;59542;37.950;-122.338;2023-09-18T06:32:32;8.95;;;5.97;;
70008;SDS011;59542;37.950;-122.338;2023-09-18T06:34:58;8.68;;;6.28;;
70008;SDS011;59542;37.950;-122.338;2023-09-18T06:37:25;8.20;;;7.10;;
70008;SDS011;59542;37.950;-122.338;2023-09-18T06:39:51;9.30;;;6.45;;
70008;SDS011;59542;37.950;-122.338;2023-09-18T06:42:18;9.13;;;6.53;;
70008;SDS011;59542;37.950;-122.338;2023-09-18T06:44:44;8.25;;;6.72;;
70008;SDS011;59542;37.950;-122.338;2023-09-18T06:47:11;6.25;;;5.25;;
70008;SDS011;59542;37.950;-122.338;2023-09-18T06:49:37;6.30;;;5.68;;
70008;SDS011;59542;37.950;-122.338;2023-09-18T06:52:03;8.25;;;5.72;;
70008;SDS011;59542;37.950;-122.338;2023-09-18T06:54:31;12.05;;;5.82;;
70008;SDS011;59542;37.950;-122.338;2023-09-18T06:56:57;8.93;;;5.57;;
70008;SDS011;59542;37.950;-122.338;2023-09-18T06:59:24;7.60;;;5.63;;
70008;SDS011;59542;37.950;-122.338;2023-09-18T07:01:50;8.40;;;6.38;;
70008;SDS011;59542;37.950;-122.338;2023-09-18T07:04:16;7.03;;;6.30;;
70008;SDS011;59542;37.950;-122.338;2023-09-18T07:06:42;6.75;;;6.05;;
70008;SDS011;59542;37.950;-122.338;2023-09-18T07:09:09;7.70;;;5.88;;
70008;SDS011;59542;37.950;-122.338;2023-09-18T07:11:37;11.10;;;5.95;;
70008;SDS011;59542;37.950;-122.338;2023-09-18T07:14:03;10.95;;;6.05;;
70008;SDS011;59542;37.950;-122.338;2023-09-18T07:16:31;7.32;;;5.22;;
70008;SDS011;59542;37.950;-122.338;2023-09-18T07:18:58;5.43;;;4.93;;
70008;SDS011;59542;37.950;-122.338;2023-09-18T07:21:24;7.05;;;5.75;;
70008;SDS011;59542;37.950;-122.338;2023-09-18T07:23:50;6.82;;;6.00;;
70008;SDS011;59542;37.950;-122.338;2023-09-18T07:26:16;7.15;;;5.65;;
70008;SDS011;59542;37.950;-122.338;2023-09-18T07:28:43;7.70;;;5.43;;
70008;SDS011;59542;37.950;-122.338;2023-09-18T07:31:11;6.28;;;5.20;;
70008;SDS011;59542;37.950;-122.338;2023-09-18T07:33:40;6.28;;;5.55;;
70008;SDS011;59542;37.950;-122.338;2023-09-18T07:36:09;6.85;;;5.57;;
70008;SDS011;59542;37.950;-122.338;2023-09-18T07:38:35;7.47;;;5.03;;
70008;SDS011;59542;37.950;-122.338;2023-09-18T07:41:03;7.20;;;6.22;;
70008;SDS011;59542;37.950;-122.338;2023-09-18T07:43:29;6.03;;;5.35;;
70008;SDS011;59542;37.950;-122.338;2023-09-18T07:45:56;7.05;;;5.40;;
70008;SDS011;59542;37.950;-122.338;2023-09-18T07:48:23;6.90;;;5.47;;
70008;SDS011;59542;37.950;-122.338;2023-09-18T07:50:49;8.20;;;6.13;;
70008;SDS011;59542;37.950;-122.338;2023-09-18T07:53:16;7.72;;;6.18;;
70008;SDS011;59542;37.950;-122.338;2023-09-18T07:55:42;8.85;;;5.97;;
70008;SDS011;59542;37.950;-122.338;2023-09-18T07:58:08;6.50;;;5.63;;
70008;SDS011;59542;37.950;-122.338;2023-09-18T08:00:35;9.73;;;6.05;;
70008;SDS011;59542;37.950;-122.338;2023-09-18T08:03:01;7.20;;;5.53;;
70008;SDS011;59542;37.950;-122.338;2023-09-18T08:05:27;9.88;;;5.82;;
70008;SDS011;59542;37.950;-122.338;2023-09-18T08:07:55;6.93;;;5.97;;
70008;SDS011;59542;37.950;-122.338;2023-09-18T08:10:22;7.32;;;5.57;;
70008;SDS011;59542;37.950;-122.338;2023-09-18T08:12:49;8.35;;;5.70;;
70008;SDS011;59542;37.950;-122.338;2023-09-18T08:15:17;6.70;;;6.00;;
70008;SDS011;59542;37.950;-122.338;2023-09-18T08:17:46;7.93;;;5.80;;
70008;SDS011;59542;37.950;-122.338;2023-09-18T08:20:15;8.48;;;5.95;;
70008;SDS011;59542;37.950;-122.338;2023-09-18T08:22:42;8.43;;;6.07;;
70008;SDS011;59542;37.950;-122.338;2023-09-18T08:25:10;7.18;;;5.50;;
70008;SDS011;59542;37.950;-122.338;2023-09-18T08:27:38;7.40;;;5.63;;
70008;SDS011;59542;37.950;-122.338;2023-09-18T08:30:10;6.63;;;5.57;;
70008;SDS011;59542;37.950;-122.338;2023-09-18T08:32:38;6.00;;;5.40;;
70008;SDS011;59542;37.950;-122.338;2023-09-18T08:35:04;7.40;;;5.47;;
70008;SDS011;59542;37.950;-122.338;2023-09-18T08:37:31;7.13;;;5.88;;
70008;SDS011;59542;37.950;-122.338;2023-09-18T08:39:57;8.00;;;6.30;;
70008;SDS011;59542;37.950;-122.338;2023-09-18T08:42:27;6.65;;;5.72;;
70008;SDS011;59542;37.950;-122.338;2023-09-18T08:44:59;16.13;;;9.90;;
70008;SDS011;59542;37.950;-122.338;2023-09-18T08:47:29;23.00;;;11.57;;
70008;SDS011;59542;37.950;-122.338;2023-09-18T08:49:56;16.55;;;9.88;;
70008;SDS011;59542;37.950;-122.338;2023-09-18T08:52:24;13.95;;;8.75;;
70008;SDS011;59542;37.950;-122.338;2023-09-18T08:54:52;21.27;;;11.35;;
70008;SDS011;59542;37.950;-122.338;2023-09-18T08:57:21;28.65;;;14.10;;
70008;SDS011;59542;37.950;-122.338;2023-09-18T08:59:48;39.13;;;18.38;;
70008;SDS011;59542;37.950;-122.338;2023-09-18T09:02:18;34.35;;;16.73;;
70008;SDS011;59542;37.950;-122.338;2023-09-18T09:04:44;32.50;;;14.68;;
70008;SDS011;59542;37.950;-122.338;2023-09-18T09:07:10;25.85;;;13.45;;
70008;SDS011;59542;37.950;-122.338;2023-09-18T09:09:37;23.85;;;11.00;;
70008;SDS011;59542;37.950;-122.338;2023-09-18T09:12:04;25.10;;;12.48;;
70008;SDS011;59542;37.950;-122.338;2023-09-18T09:14:30;17.25;;;9.70;;
70008;SDS011;59542;37.950;-122.338;2023-09-18T09:16:56;14.85;;;9.35;;
70008;SDS011;59542;37.950;-122.338;2023-09-18T09:19:35;16.58;;;10.18;;
70008;SDS011;59542;37.950;-122.338;2023-09-18T09:22:04;21.38;;;12.27;;
70008;SDS011;59542;37.950;-122.338;2023-09-18T09:24:41;15.75;;;10.18;;
70008;SDS011;59542;37.950;-122.338;2023-09-18T09:27:09;15.95;;;9.70;;
70008;SDS011;59542;37.950;-122.338;2023-09-18T09:29:36;14.27;;;8.57;;
70008;SDS011;59542;37.950;-122.338;2023-09-18T09:32:12;15.93;;;10.02;;
70008;SDS011;59542;37.950;-122.338;2023-09-18T09:34:40;17.02;;;10.32;;
70008;SDS011;59542;37.950;-122.338;2023-09-18T09:37:07;16.40;;;9.93;;
70008;SDS011;59542;37.950;-122.338;2023-09-18T09:39:33;19.35;;;11.63;;
70008;SDS011;59542;37.950;-122.338;2023-09-18T09:42:00;59.83;;;25.90;;
70008;SDS011;59542;37.950;-122.338;2023-09-18T09:44:31;66.65;;;30.42;;
70008;SDS011;59542;37.950;-122.338;2023-09-18T09:46:58;64.93;;;30.15;;
70008;SDS011;59542;37.950;-122.338;2023-09-18T09:49:25;58.58;;;27.13;;
70008;SDS011;59542;37.950;-122.338;2023-09-18T09:51:58;55.20;;;26.13;;
70008;SDS011;59542;37.950;-122.338;2023-09-18T09:54:34;49.70;;;25.58;;
70008;SDS011;59542;37.950;-122.338;2023-09-18T09:57:02;51.53;;;24.77;;
70008;SDS011;59542;37.950;-122.338;2023-09-18T09:59:29;47.20;;;22.42;;
70008;SDS011;59542;37.950;-122.338;2023-09-18T10:01:58;46.33;;;22.85;;
70008;SDS011;59542;37.950;-122.338;2023-09-18T10:04:25;34.85;;;19.13;;
70008;SDS011;59542;37.950;-122.338;2023-09-18T10:07:07;40.70;;;19.17;;
70008;SDS011;59542;37.950;-122.338;2023-09-18T10:09:35;36.03;;;17.30;;
70008;SDS011;59542;37.950;-122.338;2023-09-18T10:12:05;28.60;;;15.05;;
70008;SDS011;59542;37.950;-122.338;2023-09-18T10:14:40;25.50;;;13.65;;
70008;SDS011;59542;37.950;-122.338;2023-09-18T10:17:18;18.80;;;11.30;;
70008;SDS011;59542;37.950;-122.338;2023-09-18T10:20:01;17.67;;;10.95;;
70008;SDS011;59542;37.950;-122.338;2023-09-18T10:22:42;16.13;;;9.65;;
70008;SDS011;59542;37.950;-122.338;2023-09-18T10:25:20;13.45;;;9.05;;
70008;SDS011;59542;37.950;-122.338;2023-09-18T10:27:50;10.35;;;8.25;;
70008;SDS011;59542;37.950;-122.338;2023-09-18T10:30:23;14.80;;;9.53;;
70008;SDS011;59542;37.950;-122.338;2023-09-18T10:32:52;10.45;;;7.82;;
70008;SDS011;59542;37.950;-122.338;2023-09-18T10:35:19;14.52;;;10.00;;
70008;SDS011;59542;37.950;-122.338;2023-09-18T10:37:46;12.18;;;8.60;;
70008;SDS011;59542;37.950;-122.338;2023-09-18T10:40:16;14.80;;;9.65;;
70008;SDS011;59542;37.950;-122.338;2023-09-18T10:42:43;13.45;;;9.15;;
70008;SDS011;59542;37.950;-122.338;2023-09-18T10:45:12;14.32;;;9.30;;
70008;SDS011;59542;37.950;-122.338;2023-09-18T10:47:41;10.73;;;7.90;;
70008;SDS011;59542;37.950;-122.338;2023-09-18T10:50:13;9.57;;;7.10;;
70008;SDS011;59542;37.950;-122.338;2023-09-18T10:52:50;10.43;;;6.97;;
70008;SDS011;59542;37.950;-122.338;2023-09-18T10:55:16;8.80;;;7.65;;
70008;SDS011;59542;37.950;-122.338;2023-09-18T10:57:53;11.05;;;7.03;;
70008;SDS011;59542;37.950;-122.338;2023-09-18T11:00:26;10.38;;;7.20;;
70008;SDS011;59542;37.950;-122.338;2023-09-18T11:03:17;9.50;;;7.13;;
70008;SDS011;59542;37.950;-122.338;2023-09-18T11:05:48;9.55;;;6.90;;
70008;SDS011;59542;37.950;-122.338;2023-09-18T11:08:28;9.20;;;6.30;;
70008;SDS011;59542;37.950;-122.338;2023-09-18T11:11:09;10.90;;;6.90;;
70008;SDS011;59542;37.950;-122.338;2023-09-18T11:13:39;8.15;;;6.43;;
70008;SDS011;59542;37.950;-122.338;2023-09-18T11:16:15;7.75;;;6.65;;
70008;SDS011;59542;37.950;-122.338;2023-09-18T11:18:50;9.20;;;6.75;;
70008;SDS011;59542;37.950;-122.338;2023-09-18T11:21:18;9.10;;;7.25;;
70008;SDS011;59542;37.950;-122.338;2023-09-18T11:26:35;7.22;;;6.32;;
70008;SDS011;59542;37.950;-122.338;2023-09-18T11:29:10;8.90;;;7.30;;
70008;SDS011;59542;37.950;-122.338;2023-09-18T11:31:44;8.00;;;7.05;;
70008;SDS011;59542;37.950;-122.338;2023-09-18T11:34:11;8.40;;;6.18;;
70008;SDS011;59542;37.950;-122.338;2023-09-18T11:36:38;6.43;;;5.82;;
70008;SDS011;59542;37.950;-122.338;2023-09-18T11:39:05;7.15;;;5.82;;
70008;SDS011;59542;37.950;-122.338;2023-09-18T11:41:33;6.72;;;6.03;;
70008;SDS011;59542;37.950;-122.338;2023-09-18T11:46:45;8.07;;;5.22;;
70008;SDS011;59542;37.950;-122.338;2023-09-18T11:49:14;7.35;;;5.38;;
70008;SDS011;59542;37.950;-122.338;2023-09-18T11:51:46;5.78;;;5.22;;
70008;SDS011;59542;37.950;-122.338;2023-09-18T11:54:12;7.65;;;6.90;;
70008;SDS011;59542;37.950;-122.338;2023-09-18T11:56:41;7.13;;;6.18;;
70008;SDS011;59542;37.950;-122.338;2023-09-18T11:59:07;7.43;;;5.57;;
70008;SDS011;59542;37.950;-122.338;2023-09-18T12:01:35;6.32;;;5.47;;
70008;SDS011;59542;37.950;-122.338;2023-09-18T12:04:04;7.05;;;5.80;;
70008;SDS011;59542;37.950;-122.338;2023-09-18T12:06:34;6.60;;;6.00;;
70008;SDS011;59542;37.950;-122.338;2023-09-18T12:09:02;8.32;;;6.78;;
70008;SDS011;59542;37.950;-122.338;2023-09-18T12:11:29;6.78;;;6.07;;
70008;SDS011;59542;37.950;-122.338;2023-09-18T12:13:55;7.50;;;6.78;;
70008;SDS011;59542;37.950;-122.338;2023-09-18T12:16:23;7.38;;;6.68;;
70008;SDS011;59542;37.950;-122.338;2023-09-18T12:18:49;7.93;;;7.13;;
70008;SDS011;59542;37.950;-122.338;2023-09-18T12:21:16;7.97;;;6.65;;
70008;SDS011;59542;37.950;-122.338;2023-09-18T12:23:44;7.53;;;6.82;;
70008;SDS011;59542;37.950;-122.338;2023-09-18T12:26:12;7.22;;;6.50;;
70008;SDS011;59542;37.950;-122.338;2023-09-18T12:28:41;7.28;;;6.57;;
70008;SDS011;59542;37.950;-122.338;2023-09-18T12:31:14;8.02;;;7.22;;
70008;SDS011;59542;37.950;-122.338;2023-09-18T12:33:42;6.63;;;5.97;;
70008;SDS011;59542;37.950;-122.338;2023-09-18T12:36:09;6.60;;;5.63;;
70008;SDS011;59542;37.950;-122.338;2023-09-18T12:38:37;6.80;;;6.05;;
70008;SDS011;59542;37.950;-122.338;2023-09-18T12:41:04;7.00;;;6.30;;
70008;SDS011;59542;37.950;-122.338;2023-09-18T12:43:41;7.28;;;6.18;;
70008;SDS011;59542;37.950;-122.338;2023-09-18T12:46:09;6.20;;;5.60;;
70008;SDS011;59542;37.950;-122.338;2023-09-18T12:48:39;5.13;;;4.60;;
70008;SDS011;59542;37.950;-122.338;2023-09-18T12:51:10;7.03;;;5.97;;
70008;SDS011;59542;37.950;-122.338;2023-09-18T12:53:37;6.00;;;5.13;;
70008;SDS011;59542;37.950;-122.338;2023-09-18T12:56:07;6.47;;;5.72;;
70008;SDS011;59542;37.950;-122.338;2023-09-18T12:58:35;6.50;;;5.80;;
70008;SDS011;59542;37.950;-122.338;2023-09-18T13:01:05;5.72;;;5.20;;
70008;SDS011;59542;37.950;-122.338;2023-09-18T13:03:46;6.00;;;4.53;;
70008;SDS011;59542;37.950;-122.338;2023-09-18T13:06:16;8.90;;;6.20;;
70008;SDS011;59542;37.950;-122.338;2023-09-18T13:08:43;5.57;;;4.97;;
70008;SDS011;59542;37.950;-122.338;2023-09-18T13:11:10;6.03;;;4.68;;
70008;SDS011;59542;37.950;-122.338;2023-09-18T13:13:37;6.18;;;5.13;;
70008;SDS011;59542;37.950;-122.338;2023-09-18T13:16:07;5.70;;;5.13;;
70008;SDS011;59542;37.950;-122.338;2023-09-18T13:18:37;5.63;;;5.13;;
70008;SDS011;59542;37.950;-122.338;2023-09-18T13:21:10;5.93;;;5.10;;
70008;SDS011;59542;37.950;-122.338;2023-09-18T13:23:37;5.28;;;4.78;;
70008;SDS011;59542;37.950;-122.338;2023-09-18T13:26:04;5.20;;;4.65;;
70008;SDS011;59542;37.950;-122.338;2023-09-18T13:28:33;5.53;;;4.57;;
70008;SDS011;59542;37.950;-122.338;2023-09-18T13:31:01;6.88;;;5.80;;
70008;SDS011;59542;37.950;-122.338;2023-09-18T13:33:32;5.85;;;5.22;;
70008;SDS011;59542;37.950;-122.338;2023-09-18T13:35:59;7.78;;;5.65;;
70008;SDS011;59542;37.950;-122.338;2023-09-18T13:38:25;6.35;;;5.75;;
70008;SDS011;59542;37.950;-122.338;2023-09-18T13:40:52;5.93;;;5.32;;
70008;SDS011;59542;37.950;-122.338;2023-09-18T13:43:20;6.20;;;5.53;;
70008;SDS011;59542;37.950;-122.338;2023-09-18T13:45:50;8.93;;;6.43;;
70008;SDS011;59542;37.950;-122.338;2023-09-18T13:48:19;7.88;;;5.05;;
70008;SDS011;59542;37.950;-122.338;2023-09-18T13:50:46;7.47;;;5.80;;
70008;SDS011;59542;37.950;-122.338;2023-09-18T13:53:13;8.43;;;5.85;;
70008;SDS011;59542;37.950;-122.338;2023-09-18T13:55:39;7.38;;;5.78;;
70008;SDS011;59542;37.950;-122.338;2023-09-18T13:58:05;6.45;;;5.80;;
70008;SDS011;59542;37.950;-122.338;2023-09-18T14:00:32;8.45;;;5.55;;
70008;SDS011;59542;37.950;-122.338;2023-09-18T14:02:58;9.20;;;5.82;;
70008;SDS011;59542;37.950;-122.338;2023-09-18T14:05:25;6.15;;;5.55;;
70008;SDS011;59542;37.950;-122.338;2023-09-18T14:07:53;8.52;;;6.43;;
70008;SDS011;59542;37.950;-122.338;2023-09-18T14:10:25;8.40;;;6.25;;
70008;SDS011;59542;37.950;-122.338;2023-09-18T14:12:52;7.45;;;6.30;;
70008;SDS011;59542;37.950;-122.338;2023-09-18T14:15:18;6.65;;;5.97;;
70008;SDS011;59542;37.950;-122.338;2023-09-18T14:17:45;7.90;;;7.10;;
70008;SDS011;59542;37.950;-122.338;2023-09-18T14:20:11;6.97;;;6.28;;
70008;SDS011;59542;37.950;-122.338;2023-09-18T14:22:38;8.68;;;6.93;;